Time;durP1;ratioP1;P1;durP2;ratioP2;P2;SDS_P1;SDS_P2;PMS_P1;PMS_P2;Temp;Humidity;BMP_temperature;BMP_pressure;BME280_temperature;BME280_humidity;BME280_pressure;Samples;Min_cycle;Max_cycle;Signal;HPM_P1;HPM_P2
2023/07/05 00:00:12;;;;;;;3.88;2.25;;;;;;;20.75;61.88;98947.31;341026;28;4651;-62
2023/07/05 00:00:24;;;;;;;3.55;2.30;;;;;;;20.74;62.21;98943.03;338276;28;18011;-63
2023/07/05 00:00:36;;;;;;;5.47;2.33;;;;;;;20.74;62.32;98948.31;341155;28;4516;-62
2023/07/05 00:00:48;;;;;;;5.50;2.20;;;;;;;20.77;61.86;98946.38;337149;28;18276;-62
2023/07/05 00:01:00;;;;;;;4.72;2.15;;;;;;;20.79;62.01;98941.78;340171;28;4529;-62
2023/07/05 00:01:14;;;;;;;2.40;1.98;;;;;;;20.80;62.08;98946.91;338350;28;18318;-62
2023/07/05 00:01:26;;;;;;;2.58;1.90;;;;;;;20.85;62.15;98938.63;340544;28;4645;-62
2023/07/05 00:01:38;;;;;;;2.75;1.90;;;;;;;20.87;61.84;98947.25;337783;28;4678;-62
2023/07/05 00:01:50;;;;;;;3.15;1.88;;;;;;;20.87;61.87;98942.78;341227;28;5433;-62
2023/07/05 00:02:02;;;;;;;3.10;1.95;;;;;;;20.88;62.02;98935.69;338769;28;10156;-62
2023/07/05 00:02:14;;;;;;;2.92;1.98;;;;;;;20.87;61.73;98941.97;341355;28;5441;-62
2023/07/05 00:02:26;;;;;;;2.63;2.10;;;;;;;20.86;61.89;98940.28;341034;28;5241;-62
2023/07/05 00:02:38;;;;;;;2.65;2.05;;;;;;;20.84;61.91;98934.28;338305;28;17977;-62
2023/07/05 00:02:53;;;;;;;3.63;2.15;;;;;;;20.84;61.76;98937.75;339850;28;4657;-62
2023/07/05 00:03:05;;;;;;;4.20;2.17;;;;;;;20.83;61.83;98935.28;336746;28;18190;-63
2023/07/05 00:03:17;;;;;;;3.78;2.22;;;;;;;20.85;61.68;98941.25;337406;28;16414;-63
2023/07/05 00:03:30;;;;;;;4.65;2.45;;;;;;;20.87;61.77;98941.97;336627;28;5329;-62
2023/07/05 00:03:42;;;;;;;4.05;2.35;;;;;;;20.89;61.76;98938.22;336886;28;12121;-62
2023/07/05 00:03:54;;;;;;;3.15;2.20;;;;;;;20.89;61.83;98937.38;339273;28;4600;-63
2023/07/05 00:04:06;;;;;;;2.75;1.95;;;;;;;20.92;61.67;98934.47;339366;28;5662;-63
2023/07/05 00:04:18;;;;;;;3.28;1.98;;;;;;;20.93;61.51;98941.44;336153;28;17896;-63
2023/07/05 00:04:30;;;;;;;3.30;2.00;;;;;;;20.89;61.88;98934.75;338533;28;4650;-63
2023/07/05 00:04:42;;;;;;;3.35;2.05;;;;;;;20.88;61.97;98936.53;336134;28;12879;-63
2023/07/05 00:04:54;;;;;;;4.60;2.33;;;;;;;20.88;62.01;98933.88;340649;28;5416;-63
2023/07/05 00:05:07;;;;;;;4.63;2.33;;;;;;;20.87;62.16;98936.69;340799;28;4550;-63
2023/07/05 00:05:20;;;;;;;3.72;2.22;;;;;;;20.87;61.67;98934.88;338778;28;18199;-63
2023/07/05 00:05:39;;;;;;;2.83;2.03;;;;;;;20.89;62.03;98940.03;339165;28;11424;-63
2023/07/05 00:05:51;;;;;;;2.92;2.20;;;;;;;20.90;61.79;98936.41;338700;28;17671;-63
2023/07/05 00:06:04;;;;;;;3.65;2.25;;;;;;;20.90;61.43;98939.03;338888;28;18717;-63
2023/07/05 00:06:16;;;;;;;3.53;2.10;;;;;;;20.90;61.47;98936.41;341684;28;4593;-63
2023/07/05 00:06:29;;;;;;;4.07;2.22;;;;;;;20.90;61.86;98936.41;338826;28;18255;-63
2023/07/05 00:06:41;;;;;;;4.13;2.33;;;;;;;20.89;61.28;98940.84;341308;28;4770;-63
2023/07/05 00:06:53;;;;;;;3.60;2.25;;;;;;;20.90;61.61;98937.22;338798;28;18128;-63
2023/07/05 00:07:05;;;;;;;3.50;2.20;;;;;;;20.88;61.35;98930.41;341510;28;5158;-63
2023/07/05 00:07:17;;;;;;;4.55;2.20;;;;;;;20.89;61.56;98940.03;338869;28;16661;-63
2023/07/05 00:07:29;;;;;;;4.32;2.20;;;;;;;20.90;61.21;98939.03;341006;28;6002;-63
2023/07/05 00:07:41;;;;;;;3.25;2.10;;;;;;;20.90;61.24;98941.69;341595;28;4684;-63
2023/07/05 00:07:53;;;;;;;3.72;1.92;;;;;;;20.90;61.29;98936.41;338642;28;18051;-63
2023/07/05 00:08:06;;;;;;;4.40;1.85;;;;;;;20.88;61.55;98930.41;341751;28;5214;-63
2023/07/05 00:08:18;;;;;;;5.57;1.90;;;;;;;20.89;61.56;98945.31;339093;28;5455;-63
2023/07/05 00:08:31;;;;;;;4.90;2.10;;;;;;;20.88;61.20;98933.06;341496;28;4510;-63
2023/07/05 00:08:43;;;;;;;3.13;2.05;;;;;;;20.88;61.47;98933.06;338803;28;18302;-63
2023/07/05 00:08:57;;;;;;;2.90;1.90;;;;;;;20.80;61.33;98930.25;341094;28;5791;-63
2023/07/05 00:09:09;;;;;;;2.97;2.00;;;;;;;20.70;61.65;98931.03;338806;28;18127;-63
2023/07/05 00:09:21;;;;;;;3.10;2.00;;;;;;;20.67;62.31;98936.59;341596;28;5009;-63
2023/07/05 00:09:32;;;;;;;3.25;1.80;;;;;;;20.66;62.29;98934.91;338485;28;18083;-63
2023/07/05 00:09:44;;;;;;;3.83;1.88;;;;;;;20.67;62.23;98933.13;341037;28;4652;-63
2023/07/05 00:09:56;;;;;;;4.30;2.00;;;;;;;20.67;62.04;98936.59;341264;28;4684;-63
2023/07/05 00:10:10;;;;;;;3.47;2.00;;;;;;;20.69;62.05;98929.38;338447;28;19298;-63
2023/07/05 00:10:22;;;;;;;3.22;2.00;;;;;;;20.68;62.12;98938.25;338705;28;11567;-63
2023/07/05 00:10:35;;;;;;;2.90;2.10;;;;;;;20.68;61.91;98932.97;341347;28;5308;-63
2023/07/05 00:10:47;;;;;;;2.60;2.10;;;;;;;20.58;62.12;98932.03;338475;28;16599;-63
2023/07/05 00:11:04;;;;;;;4.68;2.10;;;;;;;20.55;62.37;98933.16;339835;28;4698;-63
2023/07/05 00:11:16;;;;;;;6.20;2.30;;;;;;;20.51;62.29;98926.47;336942;28;17845;-63
2023/07/05 00:11:28;;;;;;;6.57;2.30;;;;;;;20.52;62.60;98933.44;337134;28;18130;-62
2023/07/05 00:11:40;;;;;;;4.68;2.03;;;;;;;20.45;62.87;98926.16;340929;28;5470;-63
2023/07/05 00:11:52;;;;;;;5.07;2.00;;;;;;;20.46;62.83;98923.38;338627;28;15600;-63
2023/07/05 00:12:05;;;;;;;4.18;2.00;;;;;;;20.48;62.69;98928.53;341279;28;4559;-63
2023/07/05 00:12:17;;;;;;;3.67;2.10;;;;;;;20.48;62.74;98925.88;340875;28;4940;-63
2023/07/05 00:12:29;;;;;;;4.10;2.20;;;;;;;20.47;62.72;98924.22;339174;28;17344;-63
2023/07/05 00:12:41;;;;;;;4.10;2.20;;;;;;;20.47;62.89;98924.22;341306;28;4692;-63
2023/07/05 00:12:53;;;;;;;3.72;2.22;;;;;;;20.48;62.70;98925.88;338664;28;17923;-63
2023/07/05 00:13:05;;;;;;;3.08;2.00;;;;;;;20.48;62.87;98925.88;341184;28;5403;-63
2023/07/05 00:13:17;;;;;;;4.25;2.00;;;;;;;20.49;62.71;98930.22;339288;28;5369;-63
2023/07/05 00:13:29;;;;;;;4.47;2.20;;;;;;;20.49;62.71;98922.28;340311;28;4689;-63
2023/07/05 00:13:41;;;;;;;4.53;2.17;;;;;;;20.48;63.03;98921.47;340278;28;4658;-63
2023/07/05 00:13:53;;;;;;;4.15;2.00;;;;;;;20.49;62.92;98922.28;337263;28;18230;-63
2023/07/05 00:14:05;;;;;;;4.53;1.98;;;;;;;20.49;62.99;98917.00;340156;28;4742;-63
2023/07/05 00:14:17;;;;;;;4.15;2.10;;;;;;;20.46;62.96;98923.38;337504;28;18186;-63
2023/07/05 00:14:30;;;;;;;3.80;2.08;;;;;;;20.44;63.06;98924.47;339494;28;4648;-63
2023/07/05 00:14:42;;;;;;;3.45;2.05;;;;;;;20.42;63.09;98918.50;339941;28;4620;-63
2023/07/05 00:14:53;;;;;;;4.95;2.00;;;;;;;20.42;63.04;98921.13;337200;28;18153;-63
2023/07/05 00:15:06;;;;;;;5.55;2.00;;;;;;;20.43;63.24;98922.81;340327;28;4657;-63
2023/07/05 00:15:18;;;;;;;5.32;2.20;;;;;;;20.43;63.05;98922.81;338284;28;18334;-62
2023/07/05 00:15:31;;;;;;;3.70;2.28;;;;;;;20.43;63.18;98923.66;341497;28;4650;-63
2023/07/05 00:15:47;;;;;;;3.40;2.30;;;;;;;20.44;63.24;98921.84;339002;28;18050;-63
2023/07/05 00:15:59;;;;;;;3.58;2.22;;;;;;;20.41;63.55;98920.31;338790;28;16993;-63
2023/07/05 00:16:12;;;;;;;3.90;2.20;;;;;;;20.43;63.36;98922.81;341480;28;5457;-63
2023/07/05 00:16:24;;;;;;;3.08;2.08;;;;;;;20.44;63.38;98917.38;338008;28;18824;-63
2023/07/05 00:16:36;;;;;;;3.25;2.00;;;;;;;20.47;63.32;98918.94;339906;28;4679;-63
2023/07/05 00:16:49;;;;;;;3.80;2.10;;;;;;;20.49;63.18;98923.13;338794;28;18454;-63
2023/07/05 00:17:00;;;;;;;3.70;2.10;;;;;;;20.47;63.52;98918.94;341871;28;4661;-63
2023/07/05 00:17:13;;;;;;;3.20;2.17;;;;;;;20.40;63.59;98917.78;338402;28;16370;-63
2023/07/05 00:17:25;;;;;;;3.10;2.15;;;;;;;20.37;63.35;98918.06;341745;28;5534;-63
2023/07/05 00:17:37;;;;;;;3.08;2.20;;;;;;;20.35;63.51;98915.53;339223;28;11865;-63
2023/07/05 00:17:49;;;;;;;3.38;2.33;;;;;;;20.33;63.39;98918.31;341664;28;5195;-63
2023/07/05 00:18:03;;;;;;;3.33;2.17;;;;;;;20.34;63.62;98920.00;341732;28;4599;-63
2023/07/05 00:18:15;;;;;;;3.17;1.95;;;;;;;20.37;63.60;98920.69;339201;28;18175;-63
2023/07/05 00:18:28;;;;;;;2.70;1.90;;;;;;;20.39;63.45;98913.50;337477;28;17718;-63
2023/07/05 00:18:41;;;;;;;2.72;1.98;;;;;;;20.40;63.49;98923.06;340603;28;4668;-63
2023/07/05 00:18:52;;;;;;;2.78;2.20;;;;;;;20.40;63.62;98913.34;339161;28;16600;-63
2023/07/05 00:19:07;;;;;;;3.15;2.50;;;;;;;20.41;63.17;98914.19;341188;28;5419;-63
2023/07/05 00:19:19;;;;;;;4.50;2.70;;;;;;;20.41;63.22;98908.91;338226;28;17762;-63
2023/07/05 00:19:31;;;;;;;4.63;2.73;;;;;;;20.41;63.42;98911.56;341990;28;4673;-63
2023/07/05 00:19:48;;;;;;;5.75;3.40;;;;;;;20.40;63.07;98913.34;338898;28;19109;-63
2023/07/05 00:20:02;;;;;;;4.65;3.33;;;;;;;20.40;63.26;98915.16;338849;28;17867;-63
2023/07/05 00:20:15;;;;;;;4.18;2.47;;;;;;;20.39;63.21;98916.13;338930;28;18049;-63
2023/07/05 00:20:27;;;;;;;4.20;2.10;;;;;;;20.37;63.27;98912.78;339253;28;5501;-63
2023/07/05 00:20:39;;;;;;;4.00;2.17;;;;;;;20.39;63.30;98918.78;338753;28;7047;-63
2023/07/05 00:20:53;;;;;;;4.60;2.35;;;;;;;20.38;63.26;98915.28;340789;28;7455;-63
2023/07/05 00:21:08;;;;;;;4.10;2.35;;;;;;;20.37;63.36;98916.25;339001;28;17611;-63
2023/07/05 00:21:20;;;;;;;3.05;2.08;;;;;;;20.38;63.33;98922.34;338456;28;17775;-63
2023/07/05 00:21:31;;;;;;;2.78;1.95;;;;;;;20.38;63.13;98907.34;341468;28;4772;-62
2023/07/05 00:21:43;;;;;;;2.65;1.88;;;;;;;20.40;63.34;98915.16;339038;28;11642;-63
2023/07/05 00:21:55;;;;;;;3.38;2.03;;;;;;;20.40;63.23;98923.06;341624;28;4696;-63
2023/07/05 00:22:08;;;;;;;3.80;2.10;;;;;;;20.40;63.28;98912.50;338578;28;12403;-63
2023/07/05 00:22:20;;;;;;;3.83;2.20;;;;;;;20.41;63.48;98919.47;341373;28;4639;-63
2023/07/05 00:22:32;;;;;;;3.00;2.00;;;;;;;20.41;63.15;98909.75;341760;28;4722;-63
2023/07/05 00:22:44;;;;;;;3.83;1.77;;;;;;;20.43;63.44;98917.53;337386;28;18587;-63
2023/07/05 00:22:56;;;;;;;4.22;1.83;;;;;;;20.44;63.48;98919.19;340749;28;5391;-63
2023/07/05 00:23:08;;;;;;;3.30;1.95;;;;;;;20.46;63.49;98919.91;338837;28;10786;-63
2023/07/05 00:23:20;;;;;;;3.35;2.50;;;;;;;20.47;63.10;98913.66;341782;28;5520;-63
2023/07/05 00:23:35;;;;;;;3.85;2.75;;;;;;;20.47;63.24;98917.13;340869;28;4544;-63
2023/07/05 00:23:47;;;;;;;4.78;2.90;;;;;;;20.49;63.02;98917.00;340313;28;17155;-63
2023/07/05 00:23:59;;;;;;;4.45;2.60;;;;;;;20.50;63.09;98916.03;338104;28;18356;-63
2023/07/05 00:24:10;;;;;;;4.68;2.47;;;;;;;20.51;63.03;98915.91;340006;28;4682;-63
2023/07/05 00:24:22;;;;;;;4.70;2.20;;;;;;;20.52;63.00;98914.09;338358;28;12833;-63
2023/07/05 00:24:34;;;;;;;3.30;2.10;;;;;;;20.51;63.06;98909.78;340175;28;4683;-63
2023/07/05 00:24:46;;;;;;;3.28;2.20;;;;;;;20.51;63.16;98909.78;341815;28;5522;-63
2023/07/05 00:25:01;;;;;;;3.47;2.20;;;;;;;20.50;62.86;98913.38;338928;28;17948;-63
2023/07/05 00:25:13;;;;;;;3.40;2.10;;;;;;;20.47;62.88;98909.22;340576;28;17770;-63
2023/07/05 00:25:25;;;;;;;3.30;2.10;;;;;;;20.45;62.81;98915.59;341675;28;4609;-63
2023/07/05 00:25:37;;;;;;;2.47;2.00;;;;;;;20.43;63.13;98912.25;340526;28;4612;-63
2023/07/05 00:25:49;;;;;;;2.38;1.95;;;;;;;20.39;62.94;98908.22;339745;28;17613;-63
2023/07/05 00:26:03;;;;;;;3.58;2.17;;;;;;;20.33;63.25;98910.38;341322;28;5302;-63
2023/07/05 00:26:15;;;;;;;5.03;2.40;;;;;;;20.31;63.40;98914.97;338720;28;17649;-63
2023/07/05 00:26:27;;;;;;;4.90;2.35;;;;;;;20.30;63.43;98921.22;341972;28;5286;-62
2023/07/05 00:26:39;;;;;;;4.07;2.20;;;;;;;20.25;63.80;98915.47;338754;28;17988;-63
2023/07/05 00:26:51;;;;;;;3.38;2.13;;;;;;;20.26;63.79;98916.31;340589;28;4559;-63
2023/07/05 00:27:03;;;;;;;3.03;2.08;;;;;;;20.26;63.61;98922.44;328331;28;12125;-62
2023/07/05 00:27:15;;;;;;;2.95;2.00;;;;;;;20.26;63.44;98911.91;342875;28;6507;-63
2023/07/05 00:27:27;;;;;;;2.75;2.00;;;;;;;20.28;63.67;98909.97;342932;28;5358;-63
2023/07/05 00:27:39;;;;;;;2.92;2.10;;;;;;;20.27;63.45;98912.72;339214;28;17952;-62
2023/07/05 00:27:51;;;;;;;2.88;2.20;;;;;;;20.30;63.17;98913.31;342758;28;5560;-63
2023/07/05 00:28:03;;;;;;;4.05;2.20;;;;;;;20.30;63.33;98905.38;340118;28;18032;-63
2023/07/05 00:28:15;;;;;;;4.43;2.53;;;;;;;20.30;63.50;98918.59;342921;28;4724;-63
2023/07/05 00:28:27;;;;;;;4.70;2.78;;;;;;;20.30;63.43;98909.81;341744;28;4806;-63
2023/07/05 00:28:39;;;;;;;4.20;2.50;;;;;;;20.31;63.26;98912.31;339271;28;18705;-63
2023/07/05 00:28:51;;;;;;;4.15;2.28;;;;;;;20.29;62.99;98911.63;341476;28;5121;-63
2023/07/05 00:29:03;;;;;;;3.88;2.22;;;;;;;20.27;63.24;98908.28;338949;28;18139;-63
2023/07/05 00:29:15;;;;;;;4.20;2.40;;;;;;;20.29;62.97;98919.53;340702;28;4659;-63
2023/07/05 00:29:27;;;;;;;4.13;2.67;;;;;;;20.32;62.93;98916.66;340673;28;5013;-63
2023/07/05 00:29:39;;;;;;;4.05;2.47;;;;;;;20.31;63.04;98917.59;338588;28;19555;-63
2023/07/05 00:29:53;;;;;;;4.05;2.17;;;;;;;20.33;62.79;98905.09;341376;28;5727;-63
2023/07/05 00:30:09;;;;;;;3.08;2.05;;;;;;;20.34;62.45;98906.81;337461;28;17841;-63
2023/07/05 00:30:21;;;;;;;4.90;2.15;;;;;;;20.34;62.51;98912.06;337320;28;17448;-64
2023/07/05 00:30:33;;;;;;;5.13;2.20;;;;;;;20.35;62.57;98905.81;338290;28;4919;-64
2023/07/05 00:30:46;;;;;;;2.83;1.92;;;;;;;20.32;62.75;98911.38;341247;28;5662;-64
2023/07/05 00:30:58;;;;;;;2.95;1.98;;;;;;;20.33;62.58;98913.03;338809;28;16511;-64
2023/07/05 00:31:10;;;;;;;3.05;2.00;;;;;;;20.33;62.85;98913.03;340773;28;4689;-64
2023/07/05 00:31:22;;;;;;;3.67;2.10;;;;;;;20.33;63.17;98913.03;340317;28;4671;-65
2023/07/05 00:31:34;;;;;;;3.88;2.20;;;;;;;20.32;63.04;98915.78;338379;28;17691;-64
2023/07/05 00:31:46;;;;;;;4.05;2.22;;;;;;;20.32;63.16;98908.72;341351;28;4506;-64
2023/07/05 00:31:58;;;;;;;3.90;2.22;;;;;;;20.34;63.23;98911.22;338684;28;18424;-64
2023/07/05 00:32:10;;;;;;;3.97;2.20;;;;;;;20.35;63.29;98911.09;341308;28;5365;-64
2023/07/05 00:32:22;;;;;;;3.42;1.92;;;;;;;20.38;63.17;98909.16;338596;28;4675;-65
2023/07/05 00:32:35;;;;;;;3.50;1.95;;;;;;;20.40;63.09;98912.50;337438;28;19921;-65
2023/07/05 00:32:47;;;;;;;3.50;2.08;;;;;;;20.42;63.13;98915.84;340673;28;5219;-64
2023/07/05 00:32:59;;;;;;;3.85;2.00;;;;;;;20.44;62.76;98908.63;338784;28;18152;-64
2023/07/05 00:33:11;;;;;;;3.20;1.95;;;;;;;20.45;62.64;98915.59;338482;28;5312;-63
2023/07/05 00:33:23;;;;;;;2.65;1.92;;;;;;;20.47;62.71;98913.66;337664;28;11584;-63
2023/07/05 00:33:35;;;;;;;3.70;1.97;;;;;;;20.48;62.83;98905.63;340470;28;5458;-63
2023/07/05 00:33:47;;;;;;;3.47;1.80;;;;;;;20.49;62.68;98906.44;341778;28;5610;-62
2023/07/05 00:33:59;;;;;;;3.03;1.90;;;;;;;20.49;62.86;98901.16;337904;28;16800;-62
2023/07/05 00:34:11;;;;;;;4.10;2.17;;;;;;;20.48;63.38;98910.91;340612;28;5335;-62
2023/07/05 00:34:23;;;;;;;3.90;2.10;;;;;;;20.50;63.16;98903.69;337441;28;19253;-62
2023/07/05 00:34:35;;;;;;;3.13;2.00;;;;;;;20.52;63.14;98903.53;341495;28;4574;-62
2023/07/05 00:34:47;;;;;;;2.65;1.92;;;;;;;20.54;62.96;98904.25;340355;28;4602;-63
2023/07/05 00:34:59;;;;;;;2.50;1.90;;;;;;;20.53;63.03;98903.41;338248;28;18089;-62
2023/07/05 00:35:11;;;;;;;3.15;1.98;;;;;;;20.54;63.26;98902.47;341448;28;5549;-63
2023/07/05 00:35:23;;;;;;;3.22;2.00;;;;;;;20.56;63.17;98902.31;338358;28;19221;-62
2023/07/05 00:35:35;;;;;;;2.78;1.90;;;;;;;20.58;63.09;98905.66;340939;28;4668;-62
2023/07/05 00:35:49;;;;;;;2.55;1.80;;;;;;;20.59;62.97;98899.44;341641;28;5609;-62
2023/07/05 00:36:01;;;;;;;2.60;1.90;;;;;;;20.59;62.95;98901.25;338902;28;17762;-62
2023/07/05 00:36:13;;;;;;;3.10;2.10;;;;;;;20.59;62.50;98901.25;338019;28;18401;-62
2023/07/05 00:36:25;;;;;;;3.17;2.13;;;;;;;20.58;62.67;98897.72;340461;28;4635;-62
2023/07/05 00:36:37;;;;;;;3.05;1.92;;;;;;;20.60;62.49;98906.38;340742;28;7824;-63
2023/07/05 00:36:49;;;;;;;3.20;1.73;;;;;;;20.64;62.54;98902.50;338120;28;18062;-63
2023/07/05 00:37:01;;;;;;;3.40;1.80;;;;;;;20.65;62.56;98893.63;340382;28;4714;-62
2023/07/05 00:37:14;;;;;;;3.20;1.95;;;;;;;20.68;62.49;98893.34;337734;28;19441;-62
2023/07/05 00:37:26;;;;;;;3.25;1.80;;;;;;;20.70;62.58;98891.41;340491;28;5388;-62
2023/07/05 00:37:38;;;;;;;3.67;2.00;;;;;;;20.70;62.45;98893.22;338750;28;5200;-63
2023/07/05 00:37:50;;;;;;;3.13;2.15;;;;;;;20.71;62.66;98895.72;341134;28;4512;-63
2023/07/05 00:38:02;;;;;;;2.83;2.08;;;;;;;20.73;62.63;98887.69;341538;28;5191;-62
2023/07/05 00:38:14;;;;;;;2.30;1.70;;;;;;;20.75;62.44;98889.22;338811;28;18310;-62
2023/07/05 00:38:26;;;;;;;1.92;1.67;;;;;;;20.77;62.44;98888.25;340569;28;5423;-63
2023/07/05 00:38:38;;;;;;;2.35;1.70;;;;;;;20.78;62.10;98896.03;338663;28;4786;-62
2023/07/05 00:38:50;;;;;;;2.78;1.80;;;;;;;20.80;61.72;98887.97;340231;28;4587;-62
2023/07/05 00:39:02;;;;;;;3.90;1.90;;;;;;;20.81;61.54;98889.66;340085;28;5578;-62
2023/07/05 00:39:14;;;;;;;3.40;1.88;;;;;;;20.82;61.58;98891.31;337620;28;18161;-63
2023/07/05 00:39:27;;;;;;;3.63;1.70;;;;;;;20.82;61.45;98886.03;339641;28;5027;-62
2023/07/05 00:39:39;;;;;;;3.55;1.70;;;;;;;20.83;61.40;98885.91;337831;28;4664;-62
2023/07/05 00:39:51;;;;;;;3.38;1.73;;;;;;;20.84;60.97;98894.66;339249;28;5229;-63
2023/07/05 00:40:03;;;;;;;2.42;1.77;;;;;;;20.84;61.03;98886.75;337553;28;6257;-62
2023/07/05 00:40:15;;;;;;;2.20;1.80;;;;;;;20.79;60.77;98888.97;340084;28;4666;-63
2023/07/05 00:40:27;;;;;;;2.08;1.70;;;;;;;20.71;61.51;98889.63;339602;28;7214;-62
2023/07/05 00:40:39;;;;;;;2.70;1.90;;;;;;;20.74;61.26;98898.13;337169;28;19063;-62
2023/07/05 00:40:52;;;;;;;2.70;1.90;;;;;;;20.75;60.65;98891.03;340386;28;4663;-62
2023/07/05 00:41:04;;;;;;;2.95;1.98;;;;;;;20.79;60.51;98888.97;337797;28;17637;-62
2023/07/05 00:41:17;;;;;;;2.80;1.90;;;;;;;20.80;59.85;98882.69;341516;28;5440;-62
2023/07/05 00:41:29;;;;;;;2.83;1.88;;;;;;;20.82;60.20;98891.31;338521;28;11217;-62
2023/07/05 00:41:41;;;;;;;3.05;1.88;;;;;;;20.85;60.01;98888.44;341082;28;4632;-62
2023/07/05 00:41:53;;;;;;;3.38;1.95;;;;;;;20.83;59.97;98882.44;339272;28;11319;-62
2023/07/05 00:42:05;;;;;;;3.35;2.05;;;;;;;20.85;60.17;98893.72;341863;28;4530;-62
2023/07/05 00:42:17;;;;;;;2.67;1.95;;;;;;;20.86;60.02;98882.16;340715;28;13411;-62
2023/07/05 00:42:29;;;;;;;2.92;1.85;;;;;;;20.89;59.75;98881.91;339275;28;18457;-62
2023/07/05 00:42:42;;;;;;;3.20;1.98;;;;;;;20.90;59.92;98888.84;341491;28;5301;-62
2023/07/05 00:42:54;;;;;;;2.20;1.75;;;;;;;20.95;59.88;98887.47;339235;28;18213;-63
2023/07/05 00:43:06;;;;;;;2.00;1.60;;;;;;;20.98;59.75;98886.38;341347;28;4646;-63
2023/07/05 00:43:19;;;;;;;2.22;1.50;;;;;;;21.01;60.00;98885.28;338064;28;11059;-62
2023/07/05 00:43:31;;;;;;;2.50;1.70;;;;;;;21.03;59.81;98886.81;341531;28;4665;-63
2023/07/05 00:43:48;;;;;;;2.55;1.80;;;;;;;21.03;60.24;98881.53;338821;28;18006;-62
2023/07/05 00:44:00;;;;;;;2.75;2.00;;;;;;;21.07;59.76;98888.22;337983;28;18109;-63
2023/07/05 00:44:13;;;;;;;2.50;1.85;;;;;;;21.09;59.27;98886.25;341640;28;5194;-63
2023/07/05 00:44:27;;;;;;;2.60;1.88;;;;;;;21.11;58.92;98884.31;337865;28;17778;-62
2023/07/05 00:44:39;;;;;;;2.63;1.80;;;;;;;21.14;58.43;98885.84;338818;28;18116;-62
2023/07/05 00:45:09;;;;;;;2.45;1.70;;;;;;;21.20;58.05;98879.19;341003;28;5087;-62
2023/07/05 00:45:43;;;;;;;1.80;1.50;;;;;;;21.24;58.15;98878.75;338109;28;16998;-63
2023/07/05 00:46:24;;;;;;;2.75;1.70;;;;;;;21.20;58.13;98881.84;339256;28;17547;-62
2023/07/05 00:46:45;;;;;;;2.60;1.70;;;;;;;21.24;57.89;98884.06;333915;28;18387;-63
2023/07/05 00:47:03;;;;;;;2.22;1.70;;;;;;;21.26;57.84;98879.47;338762;28;17508;-63
2023/07/05 00:47:27;;;;;;;3.17;1.80;;;;;;;21.29;58.05;98875.72;338859;28;17434;-63
2023/07/05 00:47:43;;;;;;;3.17;1.70;;;;;;;21.30;57.78;98875.56;337935;28;17604;-63
2023/07/05 00:47:56;;;;;;;2.60;1.52;;;;;;;21.34;57.52;98870.84;339103;28;17961;-63
2023/07/05 00:48:13;;;;;;;2.35;1.60;;;;;;;21.36;57.50;98874.19;339169;28;19308;-63
2023/07/05 00:48:49;;;;;;;3.50;1.73;;;;;;;21.40;57.18;98870.31;337976;28;17656;-63
2023/07/05 00:49:02;;;;;;;2.53;1.52;;;;;;;21.44;57.24;98869.09;337871;28;17505;-63
2023/07/05 00:49:18;;;;;;;3.05;1.55;;;;;;;21.48;57.24;98870.47;339265;28;19170;-63
2023/07/05 00:49:32;;;;;;;2.40;1.50;;;;;;;21.48;56.72;98875.75;339266;28;17921;-63
2023/07/05 00:49:45;;;;;;;2.00;1.50;;;;;;;21.52;56.45;98869.22;338004;28;18346;-63
2023/07/05 00:50:00;;;;;;;2.03;1.40;;;;;;;21.56;56.49;98863.66;341884;28;5723;-63
2023/07/05 00:50:20;;;;;;;1.67;1.27;;;;;;;21.58;56.26;98870.47;338793;28;17970;-63
2023/07/05 00:50:37;;;;;;;4.05;1.42;;;;;;;21.63;56.12;98870.06;338878;28;17448;-63
2023/07/05 00:50:57;;;;;;;4.65;1.60;;;;;;;21.66;56.07;98875.91;339089;28;17979;-63
2023/07/05 00:51:20;;;;;;;3.22;1.60;;;;;;;21.70;56.02;98881.75;334997;28;17631;-63
2023/07/05 00:51:42;;;;;;;3.03;1.48;;;;;;;21.72;55.93;98879.81;338049;28;17434;-63
2023/07/05 00:52:01;;;;;;;2.90;1.38;;;;;;;21.77;55.81;98877.56;338157;28;17367;-62
2023/07/05 00:52:16;;;;;;;2.15;1.33;;;;;;;21.80;55.57;98879.09;337834;28;17782;-62
2023/07/05 00:52:28;;;;;;;2.33;1.25;;;;;;;21.82;55.64;98870.06;340639;28;10986;-62
2023/07/05 00:52:41;;;;;;;2.78;1.42;;;;;;;21.84;55.35;98877.84;338825;28;18579;-63
2023/07/05 00:52:54;;;;;;;3.72;1.50;;;;;;;21.86;55.26;98876.72;341772;28;5168;-62
2023/07/05 00:53:08;;;;;;;3.80;1.48;;;;;;;21.86;54.96;98879.38;337699;28;18309;-62
2023/07/05 00:53:23;;;;;;;2.17;1.58;;;;;;;21.87;54.51;98881.06;337538;28;17852;-63
2023/07/05 00:53:37;;;;;;;2.22;1.60;;;;;;;21.90;54.63;98878.13;339200;28;18092;-62
2023/07/05 00:53:52;;;;;;;2.35;1.55;;;;;;;21.92;54.27;98870.88;337763;28;18088;-62
2023/07/05 00:54:05;;;;;;;2.33;1.60;;;;;;;21.96;54.57;98882.00;337917;28;18198;-62
2023/07/05 00:54:23;;;;;;;2.10;1.60;;;;;;;21.99;54.19;98886.19;340604;28;4519;-62
2023/07/05 00:54:40;;;;;;;2.10;1.52;;;;;;;22.02;54.00;98877.97;337543;28;18651;-62
2023/07/05 00:54:55;;;;;;;2.38;1.50;;;;;;;22.00;53.94;98882.56;337939;28;17482;-62
2023/07/05 00:55:08;;;;;;;3.00;1.40;;;;;;;21.99;53.93;98891.47;337706;28;18022;-63
2023/07/05 00:55:23;;;;;;;3.05;1.40;;;;;;;22.01;54.51;98886.88;337392;28;18190;-63
2023/07/05 00:55:39;;;;;;;2.90;1.45;;;;;;;22.03;54.11;98883.09;338396;28;17849;-62
2023/07/05 00:55:59;;;;;;;2.90;1.65;;;;;;;22.05;54.36;98902.31;337440;28;17761;-63
2023/07/05 00:56:18;;;;;;;2.40;1.77;;;;;;;22.06;54.16;98903.19;337574;28;17770;-63
2023/07/05 00:56:40;;;;;;;2.45;1.60;;;;;;;22.04;54.26;98926.31;337711;28;17966;-63
2023/07/05 00:56:56;;;;;;;2.33;1.67;;;;;;;22.01;54.64;98940.63;337575;28;17441;-63
2023/07/05 00:57:17;;;;;;;2.00;1.70;;;;;;;22.00;54.75;98957.50;337410;28;17684;-63
2023/07/05 00:57:34;;;;;;;2.30;1.80;;;;;;;21.94;55.72;98974.75;337656;28;18730;-63
2023/07/05 00:57:46;;;;;;;1.98;1.70;;;;;;;21.87;56.00;98981.59;338774;28;18001;-63
2023/07/05 00:57:58;;;;;;;2.35;1.80;;;;;;;21.81;56.16;98984.78;339407;28;11941;-63
2023/07/05 00:58:10;;;;;;;2.75;1.80;;;;;;;21.59;56.82;98992.97;341931;28;6036;-63
2023/07/05 00:58:23;;;;;;;2.60;1.70;;;;;;;21.44;57.11;98988.06;341338;28;4575;-63
2023/07/05 00:58:36;;;;;;;2.38;1.67;;;;;;;21.36;57.43;99001.09;338843;28;18516;-63
2023/07/05 00:58:50;;;;;;;2.35;1.63;;;;;;;21.30;57.56;99006.91;341689;28;4787;-63
2023/07/05 00:59:02;;;;;;;2.75;1.60;;;;;;;21.15;58.17;99003.81;339083;28;18354;-62
2023/07/05 00:59:15;;;;;;;3.15;1.50;;;;;;;21.15;58.97;98999.34;339084;28;17841;-63
2023/07/05 00:59:34;;;;;;;2.60;1.40;;;;;;;20.99;59.71;98995.50;340585;28;4650;-62
2023/07/05 01:00:03;;;;;;;2.35;1.50;;;;;;;20.60;62.03;99003.25;338869;28;18836;-62
2023/07/05 01:00:18;;;;;;;3.15;1.50;;;;;;;20.35;63.01;99000.00;337360;28;17383;-62
2023/07/05 01:00:30;;;;;;;1.77;1.42;;;;;;;20.23;65.46;99001.84;337636;28;18021;-63
2023/07/05 01:00:43;;;;;;;2.55;1.60;;;;;;;20.07;65.88;98986.47;340785;28;5214;-62
2023/07/05 01:00:55;;;;;;;3.38;1.70;;;;;;;20.00;66.79;98985.31;336808;28;16326;-62
2023/07/05 01:01:07;;;;;;;4.03;1.63;;;;;;;19.86;66.83;98978.53;340828;28;5057;-62
2023/07/05 01:01:19;;;;;;;3.72;1.60;;;;;;;19.74;67.58;98979.53;338268;28;18530;-64
2023/07/05 01:01:32;;;;;;;3.42;1.67;;;;;;;19.62;67.71;98975.19;341261;28;4856;-63
2023/07/05 01:01:44;;;;;;;3.67;1.80;;;;;;;19.51;68.18;98962.88;338268;28;18321;-63
2023/07/05 01:02:14;;;;;;;3.53;1.70;;;;;;;19.37;70.29;98964.00;337772;28;18544;-64
2023/07/05 01:02:26;;;;;;;3.35;1.63;;;;;;;19.27;71.28;98960.41;340558;28;5234;-64
2023/07/05 01:02:41;;;;;;;4.60;1.60;;;;;;;19.20;70.49;98957.44;338237;28;11778;-64
2023/07/05 01:02:56;;;;;;;4.32;1.50;;;;;;;19.07;71.77;98954.94;341277;28;4878;-63
2023/07/05 01:03:12;;;;;;;2.47;1.50;;;;;;;19.02;72.37;98959.72;338754;28;17863;-64
2023/07/05 01:03:27;;;;;;;3.38;1.80;;;;;;;18.98;72.54;98954.84;338438;28;17640;-63
2023/07/05 01:03:42;;;;;;;4.00;1.70;;;;;;;18.94;72.82;98954.22;338280;28;18085;-63
2023/07/05 01:03:58;;;;;;;5.70;1.60;;;;;;;18.90;74.38;98952.81;338928;28;17638;-63
2023/07/05 01:04:11;;;;;;;7.20;1.70;;;;;;;18.86;74.05;98968.00;338900;28;17961;-64
2023/07/05 01:04:23;;;;;;;4.85;1.58;;;;;;;18.84;74.20;98964.66;340986;28;4726;-64
2023/07/05 01:04:35;;;;;;;3.28;1.42;;;;;;;18.81;74.00;98958.78;338074;28;17958;-63
2023/07/05 01:04:47;;;;;;;3.97;1.60;;;;;;;18.77;74.83;98959.00;341269;28;5473;-63